Time;durP1;ratioP1;P1;durP2;ratioP2;P2;SDS_P1;SDS_P2;PMS_P1;PMS_P2;Temp;Humidity;BMP_temperature;BMP_pressure;BME280_temperature;BME280_humidity;BME280_pressure;Samples;Min_cycle;Max_cycle;Signal;HPM_P1;HPM_P2
2021/01/31 00:00:39;;;;;;;59.95;28.92;;;-2.70;95.30;;;;;;5020411;28;20403;-77
2021/01/31 00:03:15;;;;;;;58.28;26.77;;;-2.90;95.40;;;;;;5020558;28;20045;-76
2021/01/31 00:05:42;;;;;;;;;;;-2.90;95.60;;;;;;5022900;28;20123;-76
2021/01/31 00:08:09;;;;;;;61.75;25.42;;;-2.80;95.90;;;;;;5022430;28;19948;-77
2021/01/31 00:10:35;;;;;;;61.53;27.98;;;-2.80;96.10;;;;;;5024226;28;20120;-75
2021/01/31 00:13:02;;;;;;;74.20;29.23;;;-2.80;96.30;;;;;;5027765;28;20494;-77
2021/01/31 00:15:38;;;;;;;64.20;27.13;;;-1.90;96.50;;;;;;5024752;28;20079;-77
2021/01/31 00:18:04;;;;;;;;;;;-2.70;96.40;;;;;;5020093;28;20037;-76
2021/01/31 00:20:32;;;;;;;60.20;24.85;;;-2.70;96.30;;;;;;5023374;28;19917;-76
2021/01/31 00:22:58;;;;;;;70.63;27.08;;;-2.80;96.20;;;;;;5018503;28;20033;-76
2021/01/31 00:25:24;;;;;;;63.63;27.35;;;-2.70;96.30;;;;;;5022248;28;20033;-77
2021/01/31 00:27:50;;;;;;;69.57;28.48;;;-2.70;96.30;;;;;;5022957;28;20523;-76
2021/01/31 00:30:18;;;;;;;66.93;28.73;;;-2.80;96.30;;;;;;5022702;28;20046;-76
2021/01/31 00:32:44;;;;;;;63.35;27.90;;;-2.70;96.40;;;;;;5024497;28;20196;-76
2021/01/31 00:35:10;;;;;;;71.13;26.98;;;-2.70;96.40;;;;;;5024314;28;20029;-77
2021/01/31 00:37:36;;;;;;;61.97;24.45;;;-2.80;96.50;;;;;;5022499;28;20064;-76
2021/01/31 00:40:05;;;;;;;81.10;28.70;;;-2.70;96.60;;;;;;5024455;28;20484;-76
2021/01/31 00:42:30;;;;;;;67.15;27.40;;;-2.80;96.50;;;;;;5019743;28;20037;-76
2021/01/31 00:44:56;;;;;;;80.15;28.13;;;-2.70;96.60;;;;;;5023218;28;20488;-76
2021/01/31 00:47:22;;;;;;;73.18;29.25;;;-2.80;96.60;;;;;;5021700;28;20045;-77
2021/01/31 00:49:50;;;;;;;69.72;27.90;;;-2.90;96.70;;;;;;5023945;28;20042;-76
2021/01/31 00:52:19;;;;;;;61.08;27.17;;;-2.90;96.70;;;;;;5022135;28;20379;-77
2021/01/31 00:54:44;;;;;;;61.13;27.50;;;-2.90;96.70;;;;;;5023533;28;20056;-76
2021/01/31 00:57:10;;;;;;;50.75;25.10;;;-2.90;96.50;;;;;;5024411;28;20034;-76
2021/01/31 00:59:36;;;;;;;60.70;27.10;;;-2.90;96.40;;;;;;5026545;28;20117;-77
2021/01/31 01:02:07;;;;;;;53.67;24.98;;;-2.90;96.30;;;;;;5017386;28;20037;-76
2021/01/31 01:04:33;;;;;;;64.10;29.08;;;-2.90;96.20;;;;;;5023141;28;20047;-77
2021/01/31 01:06:58;;;;;;;58.85;27.15;;;-2.90;96.30;;;;;;5020587;28;20033;-76
2021/01/31 01:09:24;;;;;;;61.75;27.40;;;-2.90;96.30;;;;;;5025943;28;20049;-76
2021/01/31 01:11:50;;;;;;;66.43;28.10;;;-3.00;96.30;;;;;;5023828;28;20096;-76
2021/01/31 01:14:15;;;;;;;59.28;27.25;;;-2.90;96.20;;;;;;5020941;28;20037;-76
2021/01/31 01:16:41;;;;;;;55.28;26.85;;;-3.00;96.20;;;;;;5022098;28;20087;-77
2021/01/31 01:19:07;;;;;;;54.45;25.88;;;-3.00;96.20;;;;;;5023233;28;20042;-76
2021/01/31 01:21:32;;;;;;;53.63;27.00;;;-3.00;96.10;;;;;;5024076;28;20041;-77
2021/01/31 01:23:59;;;;;;;54.38;25.83;;;-3.00;96.10;;;;;;5020132;28;20563;-76
2021/01/31 01:26:31;;;;;;;54.15;26.08;;;-3.00;96.00;;;;;;5019771;28;20038;-76
2021/01/31 01:28:57;;;;;;;53.28;25.77;;;-3.00;95.90;;;;;;5017587;28;20037;-76
2021/01/31 01:31:24;;;;;;;50.67;25.67;;;-3.00;95.80;;;;;;5024401;28;20045;-77
2021/01/31 01:33:50;;;;;;;51.10;26.33;;;-3.00;95.90;;;;;;5018455;28;20048;-75
2021/01/31 01:36:16;;;;;;;58.58;25.88;;;-3.00;95.80;;;;;;5017758;28;20144;-76
2021/01/31 01:38:41;;;;;;;61.60;27.98;;;-2.30;96.00;;;;;;5019849;28;20992;-76
2021/01/31 01:41:07;;;;;;;52.67;26.98;;;-3.00;95.70;;;;;;5021592;28;20112;-76
2021/01/31 01:43:33;;;;;;;46.65;24.55;;;-3.10;95.60;;;;;;5021232;28;20040;-76
2021/01/31 01:46:19;;;;;;;48.97;25.05;;;-3.00;95.60;;;;;;5027871;28;20029;-76
2021/01/31 01:48:46;;;;;;;;;;;-3.10;95.50;;;;;;5019333;28;20065;-76
2021/01/31 01:51:11;;;;;;;;;;;-3.10;95.50;;;;;;5025337;28;19936;-76
2021/01/31 01:53:38;;;;;;;55.07;25.50;;;-3.10;95.50;;;;;;5019569;28;20306;-76
2021/01/31 01:56:28;;;;;;;53.85;25.52;;;-3.10;95.50;;;;;;5023007;28;20354;-75
2021/01/31 01:58:56;;;;;;;60.75;27.25;;;-3.10;95.50;;;;;;5018804;28;20038;-76
2021/01/31 02:01:23;;;;;;;55.47;27.23;;;-3.20;95.50;;;;;;5020389;28;20049;-76
2021/01/31 02:03:54;;;;;;;55.95;27.45;;;-3.20;95.80;;;;;;5024436;28;20030;-76
2021/01/31 02:06:25;;;;;;;59.75;28.30;;;-3.20;95.60;;;;;;5021707;28;20033;-76
2021/01/31 02:08:54;;;;;;;68.50;28.85;;;-3.20;95.70;;;;;;5014535;28;20050;-76
2021/01/31 02:11:24;;;;;;;58.72;29.05;;;-3.30;95.70;;;;;;5021434;28;20041;-76
2021/01/31 02:13:57;;;;;;;56.95;27.83;;;-3.30;95.80;;;;;;5022494;28;20056;-76
2021/01/31 02:16:53;;;;;;;69.75;30.13;;;-3.30;95.90;;;;;;5022757;28;20060;-76
2021/01/31 02:19:42;;;;;;;55.90;28.02;;;-3.40;95.90;;;;;;5022531;28;20056;-76
2021/01/31 02:22:42;;;;;;;56.72;26.88;;;-3.30;95.90;;;;;;5020426;28;20068;-76
2021/01/31 02:25:19;;;;;;;54.08;27.35;;;-3.40;95.90;;;;;;5022907;28;20076;-76
2021/01/31 02:28:09;;;;;;;58.00;28.45;;;-3.40;96.00;;;;;;5025574;28;20052;-75
2021/01/31 02:31:08;;;;;;;61.78;29.27;;;-3.40;96.00;;;;;;5023179;28;20069;-76
2021/01/31 02:33:54;;;;;;;58.65;27.50;;;-3.40;96.00;;;;;;5022144;28;20065;-76
2021/01/31 02:36:26;;;;;;;62.55;28.75;;;-3.40;96.00;;;;;;5027550;28;20117;-76
2021/01/31 02:38:58;;;;;;;62.15;28.45;;;-3.40;96.00;;;;;;5022199;28;20037;-76
2021/01/31 02:41:42;;;;;;;55.80;27.20;;;-3.40;96.00;;;;;;5022676;28;20232;-76
2021/01/31 02:44:12;;;;;;;59.58;28.73;;;-3.40;95.90;;;;;;5019006;28;20053;-75
2021/01/31 02:46:45;;;;;;;59.72;27.17;;;-3.40;95.90;;;;;;5025963;28;20044;-76
2021/01/31 02:49:21;;;;;;;62.33;28.10;;;-3.40;96.00;;;;;;5025020;28;20041;-76
2021/01/31 02:52:12;;;;;;;60.90;27.85;;;-3.40;96.00;;;;;;5024731;28;20077;-75
2021/01/31 02:55:16;;;;;;;60.75;27.85;;;-3.40;96.10;;;;;;5013075;28;20077;-76
2021/01/31 02:57:58;;;;;;;56.55;28.10;;;-3.40;96.10;;;;;;5028676;28;20041;-77
2021/01/31 03:00:29;;;;;;;55.90;27.55;;;-3.40;96.00;;;;;;5027365;28;20042;-76
2021/01/31 03:03:15;;;;;;;54.25;27.15;;;-3.40;96.00;;;;;;5029224;28;20049;-75
2021/01/31 03:05:46;;;;;;;;;;;-3.40;96.00;;;;;;5023651;28;20053;-76
2021/01/31 03:08:29;;;;;;;51.13;26.25;;;-3.40;96.00;;;;;;5027879;28;19963;-76
2021/01/31 03:11:11;;;;;;;57.08;28.02;;;-3.40;96.00;;;;;;5022516;28;20083;-76
2021/01/31 03:13:59;;;;;;;53.28;26.75;;;-3.50;96.00;;;;;;5022358;28;20046;-76
2021/01/31 03:16:43;;;;;;;53.70;26.13;;;-3.50;96.00;;;;;;5023422;28;20128;-76
2021/01/31 03:19:22;;;;;;;53.90;26.90;;;-3.40;96.10;;;;;;5022049;28;20056;-76
2021/01/31 03:21:52;;;;;;;51.15;26.48;;;-3.40;96.00;;;;;;5021555;28;20057;-76
2021/01/31 03:24:45;;;;;;;50.78;25.67;;;-3.50;95.90;;;;;;5023729;28;20068;-76
2021/01/31 03:27:36;;;;;;;48.95;25.63;;;-3.40;95.80;;;;;;5020924;28;20124;-76
2021/01/31 03:30:03;;;;;;;51.00;26.15;;;-3.40;95.80;;;;;;5025054;28;20034;-76
2021/01/31 03:33:15;;;;;;;52.42;26.80;;;-3.40;95.80;;;;;;5023173;28;20053;-76
2021/01/31 03:35:44;;;;;;;59.45;26.60;;;-3.40;95.80;;;;;;4985875;28;20046;-76
2021/01/31 03:38:18;;;;;;;53.58;26.33;;;-3.50;95.90;;;;;;5017643;28;20054;-76
2021/01/31 03:40:48;;;;;;;52.75;26.88;;;-3.40;96.00;;;;;;5025019;28;20041;-76
2021/01/31 03:43:14;;;;;;;48.58;26.45;;;-3.50;96.00;;;;;;5024284;28;20040;-76
2021/01/31 03:45:51;;;;;;;52.60;26.83;;;-3.40;96.00;;;;;;5023205;28;20041;-76
2021/01/31 03:48:21;;;;;;;49.20;25.85;;;-3.40;96.00;;;;;;5022696;28;20042;-77
2021/01/31 03:50:47;;;;;;;49.33;26.52;;;-3.40;95.90;;;;;;5023328;28;20038;-76
2021/01/31 03:53:13;;;;;;;51.90;27.83;;;-3.50;95.80;;;;;;5022885;28;20040;-76
2021/01/31 03:55:42;;;;;;;50.40;27.52;;;-3.40;95.80;;;;;;5023297;28;20076;-75
2021/01/31 03:58:11;;;;;;;54.40;27.60;;;-3.40;95.80;;;;;;5025279;28;20034;-77
2021/01/31 04:00:57;;;;;;;56.55;28.08;;;-3.50;95.80;;;;;;5024809;28;20037;-76
2021/01/31 04:03:29;;;;;;;50.05;26.45;;;-3.40;95.80;;;;;;5024361;28;20038;-76
2021/01/31 04:06:07;;;;;;;47.83;25.88;;;-3.40;95.70;;;;;;5023456;28;20114;-76
2021/01/31 04:08:35;;;;;;;47.22;25.48;;;-3.40;95.70;;;;;;5023393;28;20191;-77
2021/01/31 04:11:00;;;;;;;46.90;25.05;;;-3.40;95.70;;;;;;5022183;28;20061;-76
2021/01/31 04:13:30;;;;;;;47.42;25.67;;;-3.40;95.70;;;;;;5019953;28;20490;-76
2021/01/31 04:15:59;;;;;;;51.00;26.23;;;-3.40;95.60;;;;;;5023979;28;20052;-77
2021/01/31 04:18:25;;;;;;;45.42;25.38;;;-3.30;95.90;;;;;;5024959;28;20052;-77
2021/01/31 04:20:52;;;;;;;43.30;25.23;;;-2.70;95.70;;;;;;5022411;28;20042;-76
2021/01/31 04:23:19;;;;;;;45.58;25.75;;;-3.30;95.50;;;;;;5018553;28;20044;-76
2021/01/31 04:25:45;;;;;;;45.35;24.83;;;-3.30;95.50;;;;;;5022537;28;20075;-76
2021/01/31 04:28:17;;;;;;;41.08;23.63;;;-3.30;95.40;;;;;;5020245;28;20052;-76
2021/01/31 04:30:45;;;;;;;43.85;23.80;;;-3.30;95.40;;;;;;5023471;28;20041;-77
2021/01/31 04:33:13;;;;;;;42.60;24.80;;;-3.30;95.20;;;;;;5024289;28;20045;-76
2021/01/31 04:35:39;;;;;;;42.20;23.98;;;-3.30;95.20;;;;;;5019999;28;20030;-77
2021/01/31 04:38:05;;;;;;;47.70;26.25;;;-3.30;95.20;;;;;;5021213;28;20396;-76
2021/01/31 04:40:32;;;;;;;44.38;25.10;;;-3.10;95.20;;;;;;5021643;28;20502;-76
2021/01/31 04:42:59;;;;;;;42.38;25.27;;;-3.30;95.10;;;;;;5022000;28;20040;-76
2021/01/31 04:45:24;;;;;;;41.83;23.80;;;-3.30;95.10;;;;;;5017732;28;20254;-77
2021/01/31 04:48:00;;;;;;;43.15;24.27;;;-3.40;95.20;;;;;;5018791;28;20048;-76
2021/01/31 04:50:34;;;;;;;41.85;24.70;;;-3.30;95.20;;;;;;5020374;28;20104;-76
2021/01/31 04:53:40;;;;;;;42.13;24.05;;;-3.30;95.10;;;;;;5016743;28;20041;-76
2021/01/31 04:56:17;;;;;;;39.83;23.67;;;-3.30;94.90;;;;;;5020533;28;20049;-76
2021/01/31 04:58:51;;;;;;;43.45;25.52;;;-3.30;94.80;;;;;;5018140;28;20086;-76
2021/01/31 05:01:23;;;;;;;46.97;25.98;;;-3.30;94.80;;;;;;5021565;28;20056;-76
2021/01/31 05:04:03;;;;;;;48.17;25.13;;;-3.40;95.00;;;;;;5022891;28;20038;-76
2021/01/31 05:06:36;;;;;;;49.65;26.55;;;-3.50;95.10;;;;;;5021798;28;20049;-77
2021/01/31 05:09:03;;;;;;;46.55;25.90;;;-3.50;95.30;;;;;;5019424;28;20109;-76
2021/01/31 05:11:56;;;;;;;49.78;26.38;;;-3.50;95.40;;;;;;5017653;28;20604;-76
2021/01/31 05:14:46;;;;;;;50.03;26.85;;;-3.50;95.40;;;;;;5021382;28;20483;-77
2021/01/31 05:17:16;;;;;;;52.25;25.88;;;-3.50;95.40;;;;;;5022432;28;20038;-76
2021/01/31 05:19:41;;;;;;;45.60;24.70;;;-3.60;95.40;;;;;;5020678;28;20369;-77
2021/01/31 05:22:11;;;;;;;47.63;25.00;;;-3.50;95.40;;;;;;5020483;28;20095;-76
2021/01/31 05:24:37;;;;;;;47.70;26.10;;;-3.60;95.40;;;;;;5019129;28;20132;-77
2021/01/31 05:27:04;;;;;;;42.28;23.85;;;-3.60;95.30;;;;;;5021997;28;20593;-76
2021/01/31 05:29:35;;;;;;;42.13;23.20;;;-3.50;95.40;;;;;;5023909;28;20045;-76
2021/01/31 05:32:09;;;;;;;49.00;24.67;;;-3.60;95.00;;;;;;5020976;28;20034;-76
2021/01/31 05:34:57;;;;;;;45.35;25.17;;;-3.50;94.90;;;;;;5025470;28;20037;-76
2021/01/31 05:37:24;;;;;;;44.10;24.88;;;-3.60;95.00;;;;;;5024591;28;20133;-76
2021/01/31 05:40:09;;;;;;;43.50;23.90;;;-3.60;95.00;;;;;;5021073;28;20045;-76
2021/01/31 05:42:41;;;;;;;46.10;23.45;;;-3.60;95.20;;;;;;5019568;28;20123;-77
2021/01/31 05:45:29;;;;;;;45.13;25.08;;;-3.70;95.30;;;;;;5022006;28;20076;-76
2021/01/31 05:47:55;;;;;;;48.65;25.33;;;-3.60;95.40;;;;;;5021776;28;20494;-76
2021/01/31 05:50:27;;;;;;;45.85;25.55;;;-3.60;95.40;;;;;;5020967;28;20049;-76
2021/01/31 05:52:53;;;;;;;41.40;23.60;;;-3.50;95.40;;;;;;5019622;28;20057;-77
2021/01/31 05:55:31;;;;;;;43.53;24.70;;;-3.50;95.30;;;;;;5017558;28;20411;-77
2021/01/31 05:58:15;;;;;;;39.47;22.67;;;-3.50;95.30;;;;;;5017825;28;20163;-76
2021/01/31 06:00:41;;;;;;;40.28;23.88;;;-3.50;95.10;;;;;;5020368;28;20131;-76
2021/01/31 06:03:09;;;;;;;39.45;22.40;;;-3.50;95.00;;;;;;5023636;28;20064;-77
2021/01/31 06:05:36;;;;;;;35.75;22.17;;;-3.50;95.00;;;;;;5018505;28;20537;-77
2021/01/31 06:08:09;;;;;;;38.42;22.17;;;-3.50;94.70;;;;;;5019330;28;20049;-76
2021/01/31 06:10:39;;;;;;;39.95;23.08;;;-3.50;94.50;;;;;;5020047;28;20046;-76
2021/01/31 06:13:25;;;;;;;40.38;23.65;;;-3.50;94.50;;;;;;5020557;28;20041;-76
2021/01/31 06:15:57;;;;;;;41.70;22.85;;;-3.60;94.70;;;;;;5020734;28;20040;-76
2021/01/31 06:18:27;;;;;;;44.58;23.90;;;-3.60;94.50;;;;;;5017175;28;20117;-76
2021/01/31 06:20:53;;;;;;;36.70;22.08;;;-3.30;94.50;;;;;;5019572;28;20407;-76
2021/01/31 06:23:34;;;;;;;33.10;21.10;;;-3.60;94.30;;;;;;5020179;28;20041;-76
2021/01/31 06:26:01;;;;;;;37.05;23.08;;;-3.60;94.30;;;;;;5021136;28;20068;-77
2021/01/31 06:28:31;;;;;;;43.47;24.67;;;-3.40;94.60;;;;;;5019425;28;20041;-77
2021/01/31 06:31:14;;;;;;;44.15;23.70;;;-3.70;94.60;;;;;;5019873;28;20040;-76
2021/01/31 06:33:43;;;;;;;39.78;22.20;;;-3.70;94.70;;;;;;5022726;28;20100;-77
2021/01/31 06:36:20;;;;;;;42.92;25.40;;;-3.70;94.70;;;;;;5023454;28;20403;-77
2021/01/31 06:39:10;;;;;;;40.95;23.52;;;-3.70;94.80;;;;;;5023061;28;20045;-76
2021/01/31 06:41:57;;;;;;;41.58;23.00;;;-3.70;94.90;;;;;;5016462;28;20037;-76
2021/01/31 06:45:14;;;;;;;38.60;23.10;;;-3.70;94.90;;;;;;5023042;28;20054;-77
2021/01/31 06:47:51;;;;;;;42.45;22.60;;;-3.80;94.70;;;;;;4988193;28;20061;-77
2021/01/31 06:50:49;;;;;;;40.67;23.63;;;-3.80;94.70;;;;;;5023289;28;20038;-77
2021/01/31 06:53:26;;;;;;;43.00;23.30;;;-3.70;94.70;;;;;;5025010;28;20053;-76
2021/01/31 06:55:55;;;;;;;44.63;24.15;;;-3.80;94.90;;;;;;5020492;28;20053;-77
2021/01/31 06:58:42;;;;;;;47.08;24.98;;;-3.80;95.10;;;;;;5020113;28;20045;-77
2021/01/31 07:01:45;;;;;;;39.70;22.48;;;-3.80;95.20;;;;;;5020930;28;20407;-75
2021/01/31 07:04:49;;;;;;;50.67;23.92;;;-3.80;95.10;;;;;;5014654;28;20599;-72
2021/01/31 07:07:28;;;;;;;41.40;22.73;;;-3.80;94.90;;;;;;5021104;28;20116;-74
2021/01/31 07:10:27;;;;;;;45.92;23.80;;;-3.70;95.10;;;;;;5019836;28;20131;-74
2021/01/31 07:13:31;;;;;;;45.65;24.52;;;-3.70;95.20;;;;;;5017101;28;20393;-72
2021/01/31 07:16:12;;;;;;;43.20;23.02;;;-3.70;95.40;;;;;;5020733;28;20069;-72
2021/01/31 07:18:53;;;;;;;43.45;24.08;;;-3.60;95.50;;;;;;5025368;28;20037;-72
2021/01/31 07:21:32;;;;;;;42.90;23.75;;;-3.60;95.30;;;;;;5024104;28;20038;-72
2021/01/31 07:24:01;;;;;;;40.95;23.48;;;-3.60;95.30;;;;;;5021611;28;20168;-72
2021/01/31 07:26:41;;;;;;;76.70;25.33;;;-3.50;95.30;;;;;;5020005;28;20045;-72
2021/01/31 07:29:13;;;;;;;47.58;25.10;;;-3.60;95.30;;;;;;5020784;28;20034;-72
2021/01/31 07:31:49;;;;;;;46.85;24.65;;;-3.60;95.30;;;;;;5025088;28;20128;-72
2021/01/31 07:34:26;;;;;;;43.05;24.23;;;-3.60;95.40;;;;;;5021639;28;20400;-72
2021/01/31 07:37:05;;;;;;;61.60;24.65;;;-3.50;95.40;;;;;;5021224;28;20483;-72
2021/01/31 07:39:38;;;;;;;53.17;24.05;;;-3.50;95.30;;;;;;5028208;28;20498;-72
2021/01/31 07:42:04;;;;;;;37.42;23.77;;;-3.50;95.40;;;;;;5021611;28;20057;-72
2021/01/31 07:44:34;;;;;;;48.13;24.63;;;-3.50;95.40;;;;;;5022800;28;20036;-72
2021/01/31 07:47:00;;;;;;;40.75;23.15;;;-3.40;95.50;;;;;;5020937;28;20049;-72
2021/01/31 07:49:27;;;;;;;43.28;23.73;;;-3.40;95.50;;;;;;5024903;28;20256;-72
2021/01/31 07:52:05;;;;;;;40.75;21.95;;;-3.40;95.00;;;;;;5027174;28;20503;-72
2021/01/31 07:54:35;;;;;;;42.22;22.08;;;-3.40;95.00;;;;;;5026254;28;20044;-72
2021/01/31 07:57:24;;;;;;;42.10;24.73;;;-3.40;95.00;;;;;;5024864;28;20041;-72
2021/01/31 07:59:51;;;;;;;42.72;23.55;;;-3.30;94.90;;;;;;5022420;28;20456;-72
2021/01/31 08:02:35;;;;;;;41.25;22.48;;;-3.30;95.10;;;;;;5023759;28;20084;-72
2021/01/31 08:05:00;;;;;;;41.65;24.08;;;-3.30;94.90;;;;;;5021443;28;20042;-72
2021/01/31 08:08:05;;;;;;;40.58;24.55;;;-3.30;95.10;;;;;;5023811;28;20057;-72
2021/01/31 08:10:50;;;;;;;42.97;23.92;;;-3.20;95.30;;;;;;5023546;28;20037;-71
2021/01/31 08:13:34;;;;;;;45.10;25.88;;;-3.10;95.40;;;;;;5019166;28;20522;-72
2021/01/31 08:16:01;;;;;;;41.10;23.25;;;-3.10;95.40;;;;;;5020638;28;20484;-72
2021/01/31 08:18:26;;;;;;;41.22;25.27;;;-3.00;95.40;;;;;;5021648;28;20037;-72
2021/01/31 08:20:53;;;;;;;40.08;23.30;;;-2.90;95.40;;;;;;5024630;28;20045;-72
2021/01/31 08:23:43;;;;;;;43.80;23.58;;;-2.80;95.30;;;;;;5023538;28;20037;-72
2021/01/31 08:26:09;;;;;;;40.55;24.98;;;-2.70;95.30;;;;;;5019871;28;20033;-72
2021/01/31 08:28:35;;;;;;;40.55;24.77;;;-2.70;95.20;;;;;;5019147;28;20566;-72
2021/01/31 08:31:04;;;;;;;40.83;24.40;;;-2.60;95.30;;;;;;5020146;28;20041;-72
2021/01/31 08:33:34;;;;;;;41.88;24.17;;;-2.60;95.30;;;;;;5019503;28;20061;-72
2021/01/31 08:36:08;;;;;;;41.33;23.98;;;-2.50;95.20;;;;;;5020782;28;20400;-72
2021/01/31 08:38:45;;;;;;;41.58;25.60;;;-2.50;95.30;;;;;;5019381;28;20480;-72
2021/01/31 08:41:25;;;;;;;36.28;22.25;;;-2.40;95.40;;;;;;5014812;28;20107;-72
2021/01/31 08:43:55;;;;;;;36.85;22.63;;;-2.40;95.30;;;;;;5018592;28;20077;-72
2021/01/31 08:46:22;;;;;;;35.47;23.10;;;-2.40;95.10;;;;;;5019247;28;20046;-72
2021/01/31 08:48:56;;;;;;;34.78;22.65;;;-2.30;95.00;;;;;;5016547;28;20048;-72
2021/01/31 08:51:25;;;;;;;35.08;21.83;;;-2.30;95.10;;;;;;5016255;28;21208;-72
2021/01/31 08:54:04;;;;;;;34.90;21.20;;;-2.20;95.10;;;;;;5019512;28;20595;-72
2021/01/31 08:56:53;;;;;;;33.20;21.95;;;-2.10;95.10;;;;;;5018630;28;20041;-72
2021/01/31 08:59:30;;;;;;;36.45;22.27;;;-2.10;95.10;;;;;;5017888;28;20034;-72
2021/01/31 09:02:14;;;;;;;33.83;22.38;;;-2.00;95.30;;;;;;5019201;28;20044;-72
2021/01/31 09:04:46;;;;;;;35.53;20.55;;;-2.00;94.80;;;;;;5021209;28;20033;-72
2021/01/31 09:07:23;;;;;;;36.72;21.92;;;-2.00;94.60;;;;;;5017910;28;20112;-72
2021/01/31 09:10:24;;;;;;;37.05;21.02;;;-2.00;94.70;;;;;;5020413;28;20049;-73
2021/01/31 09:12:49;;;;;;;31.45;19.80;;;-1.90;94.90;;;;;;5019142;28;20621;-72
2021/01/31 09:15:24;;;;;;;29.70;18.98;;;-1.80;94.90;;;;;;5019916;28;20045;-72
2021/01/31 09:17:51;;;;;;;25.83;16.95;;;-1.70;94.80;;;;;;5020878;28;20037;-73
2021/01/31 09:20:27;;;;;;;24.50;17.02;;;-1.50;94.70;;;;;;5021300;28;20049;-72
2021/01/31 09:22:58;;;;;;;26.88;18.02;;;-1.60;94.50;;;;;;5021685;28;20706;-73
2021/01/31 09:25:25;;;;;;;24.52;16.33;;;-1.50;94.20;;;;;;5022022;28;20037;-72
2021/01/31 09:28:17;;;;;;;20.80;15.13;;;-1.50;93.80;;;;;;5017611;28;20538;-73
2021/01/31 09:30:44;;;;;;;22.27;16.25;;;-1.40;93.60;;;;;;5021244;28;20096;-73
2021/01/31 09:33:29;;;;;;;20.75;14.70;;;-1.30;93.50;;;;;;5021214;28;20037;-73
2021/01/31 09:35:55;;;;;;;22.67;16.00;;;-1.20;93.10;;;;;;5016747;28;20037;-72
2021/01/31 09:38:25;;;;;;;22.52;15.82;;;-1.20;93.00;;;;;;5018829;28;20045;-73
2021/01/31 09:40:54;;;;;;;24.10;15.88;;;-1.20;93.20;;;;;;5019814;28;20399;-72
2021/01/31 09:43:26;;;;;;;24.45;16.65;;;-1.20;93.10;;;;;;5017198;28;20049;-72
2021/01/31 09:45:55;;;;;;;27.48;15.35;;;-1.10;93.20;;;;;;5020520;28;20445;-72
2021/01/31 09:48:24;;;;;;;20.92;14.13;;;-1.10;92.90;;;;;;5017947;28;20384;-72
2021/01/31 09:51:04;;;;;;;24.38;15.68;;;-1.00;93.10;;;;;;5019167;28;20049;-72
2021/01/31 09:53:32;;;;;;;19.10;13.65;;;-0.90;93.00;;;;;;5016345;28;20037;-72
2021/01/31 09:55:58;;;;;;;17.70;12.88;;;-0.90;93.20;;;;;;5017888;28;20077;-72
2021/01/31 09:58:28;;;;;;;19.08;13.75;;;-0.80;92.70;;;;;;5015317;28;20033;-72
2021/01/31 10:00:54;;;;;;;19.55;13.20;;;-0.80;92.70;;;;;;5018974;28;20041;-72
2021/01/31 10:03:29;;;;;;;18.33;12.43;;;-0.70;92.60;;;;;;5021102;28;20069;-72
2021/01/31 10:06:04;;;;;;;17.27;12.85;;;-0.70;92.00;;;;;;5017111;28;20500;-72
2021/01/31 10:08:30;;;;;;;19.37;12.70;;;-0.70;92.50;;;;;;5017372;28;20049;-72
2021/01/31 10:10:57;;;;;;;18.73;13.50;;;-0.60;91.90;;;;;;5018947;28;20045;-72
2021/01/31 10:13:41;;;;;;;21.77;13.27;;;-0.50;91.50;;;;;;5015450;28;20052;-72
2021/01/31 10:16:18;;;;;;;18.80;12.60;;;-0.50;91.70;;;;;;5018929;28;20121;-72
2021/01/31 10:18:44;;;;;;;19.67;13.52;;;-0.20;92.00;;;;;;5018064;28;20041;-72
2021/01/31 10:21:32;;;;;;;17.73;12.85;;;-0.40;91.80;;;;;;5021453;28;20460;-72
2021/01/31 10:24:15;;;;;;;16.50;12.07;;;-0.30;91.70;;;;;;5014350;28;20042;-72
2021/01/31 10:26:41;;;;;;;18.05;13.35;;;-0.20;91.80;;;;;;5019336;28;20046;-72
2021/01/31 10:29:07;;;;;;;16.30;12.68;;;-0.10;92.30;;;;;;5020916;28;20041;-72
2021/01/31 10:31:40;;;;;;;21.45;13.98;;;0.00;91.90;;;;;;5023631;28;20067;-73
2021/01/31 10:34:11;;;;;;;22.83;15.23;;;0.00;92.00;;;;;;5016528;28;20042;-73
2021/01/31 10:36:41;;;;;;;20.05;14.30;;;0.10;92.20;;;;;;5017026;28;20192;-72
2021/01/31 10:39:09;;;;;;;20.40;15.15;;;0.20;92.20;;;;;;5022689;28;20039;-71
2021/01/31 10:41:39;;;;;;;18.45;13.88;;;0.10;91.60;;;;;;5021740;28;20049;-72
2021/01/31 10:44:08;;;;;;;19.92;14.57;;;0.10;91.00;;;;;;5021114;28;20038;-72
2021/01/31 10:46:36;;;;;;;22.05;14.10;;;0.10;91.60;;;;;;5021190;28;20100;-72
2021/01/31 10:49:02;;;;;;;20.63;14.13;;;0.20;91.90;;;;;;5016306;28;21452;-72
2021/01/31 10:51:32;;;;;;;19.17;14.07;;;0.20;91.40;;;;;;5019675;28;20057;-72
2021/01/31 10:53:59;;;;;;;16.23;11.80;;;0.10;91.30;;;;;;5024967;28;20060;-72
2021/01/31 10:56:25;;;;;;;16.15;11.90;;;0.20;91.60;;;;;;5021876;28;20065;-72
2021/01/31 10:58:51;;;;;;;17.13;12.00;;;0.30;90.90;;;;;;5021742;28;20171;-72
2021/01/31 11:01:18;;;;;;;18.70;13.13;;;0.30;90.40;;;;;;5022484;28;20037;-72
2021/01/31 11:03:44;;;;;;;15.80;12.35;;;0.40;90.40;;;;;;5020465;28;20061;-72
2021/01/31 11:06:09;;;;;;;16.17;11.93;;;0.50;90.30;;;;;;5022481;28;20411;-72
2021/01/31 11:08:35;;;;;;;15.85;11.93;;;0.50;90.00;;;;;;5021025;28;20049;-72
2021/01/31 11:11:01;;;;;;;14.30;10.57;;;0.50;90.10;;;;;;5021766;28;20048;-72
2021/01/31 11:13:27;;;;;;;18.50;12.55;;;0.70;90.10;;;;;;5020030;28;20076;-72
2021/01/31 11:15:53;;;;;;;16.52;12.00;;;0.70;90.00;;;;;;5021401;28;20046;-72
2021/01/31 11:18:19;;;;;;;15.55;11.43;;;0.90;90.40;;;;;;5021194;28;20422;-72
2021/01/31 11:20:47;;;;;;;14.68;11.98;;;1.30;90.50;;;;;;5021092;28;20106;-72
2021/01/31 11:23:13;;;;;;;17.40;11.48;;;1.60;90.30;;;;;;5021051;28;20044;-72
2021/01/31 11:25:38;;;;;;;16.45;12.02;;;1.70;88.70;;;;;;5024772;28;20033;-72
2021/01/31 11:28:05;;;;;;;14.98;11.43;;;1.80;87.90;;;;;;5020598;28;20045;-72
2021/01/31 11:30:31;;;;;;;16.67;12.25;;;2.00;87.80;;;;;;5020565;28;20049;-72
2021/01/31 11:32:58;;;;;;;15.35;12.02;;;2.20;86.90;;;;;;5021641;28;20500;-72
2021/01/31 11:35:24;;;;;;;23.08;17.52;;;2.50;87.10;;;;;;5018973;28;20072;-72
2021/01/31 11:37:50;;;;;;;13.70;10.40;;;2.50;86.00;;;;;;5022045;28;20104;-72
2021/01/31 11:40:16;;;;;;;12.90;10.02;;;2.20;82.80;;;;;;5018961;28;20050;-72
2021/01/31 11:42:42;;;;;;;14.15;11.13;;;1.90;83.40;;;;;;5021182;28;20559;-72
2021/01/31 11:45:08;;;;;;;14.57;9.25;;;1.80;84.50;;;;;;5020328;28;20054;-72
2021/01/31 11:47:35;;;;;;;12.07;10.25;;;1.50;84.70;;;;;;5016713;28;20060;-73
2021/01/31 11:50:00;;;;;;;15.43;10.02;;;1.50;84.70;;;;;;5018284;28;20664;-72
2021/01/31 11:52:27;;;;;;;12.90;9.02;;;1.60;86.70;;;;;;5017476;28;20067;-72
2021/01/31 11:54:53;;;;;;;11.57;9.45;;;1.60;85.60;;;;;;5019414;28;20041;-72
2021/01/31 11:57:18;;;;;;;13.45;8.95;;;1.60;84.50;;;;;;5017947;28;20099;-72
2021/01/31 11:59:44;;;;;;;14.23;10.18;;;1.70;83.70;;;;;;5018650;28;20597;-72
2021/01/31 12:02:10;;;;;;;15.88;10.40;;;1.60;83.00;;;;;;5018841;28;20418;-72
2021/01/31 12:04:37;;;;;;;13.55;10.23;;;1.60;84.90;;;;;;5025263;28;20041;-72
2021/01/31 12:07:07;;;;;;;13.20;9.88;;;1.70;84.30;;;;;;5023933;28;20040;-72
2021/01/31 12:09:33;;;;;;;13.73;10.52;;;1.70;83.60;;;;;;5023611;28;20484;-72
2021/01/31 12:11:59;;;;;;;12.43;10.50;;;1.60;84.20;;;;;;5023525;28;20060;-72
2021/01/31 12:14:25;;;;;;;17.35;11.82;;;1.60;84.90;;;;;;5022564;28;20143;-72
2021/01/31 12:16:52;;;;;;;14.73;10.75;;;1.80;85.70;;;;;;5020773;28;20044;-72
2021/01/31 12:19:19;;;;;;;14.77;11.23;;;1.80;85.30;;;;;;5014377;28;20041;-72
2021/01/31 12:21:45;;;;;;;13.98;11.13;;;1.70;84.60;;;;;;5020771;28;20058;-72
2021/01/31 12:24:10;;;;;;;13.73;11.40;;;1.80;85.60;;;;;;5019428;28;20045;-72
2021/01/31 12:26:36;;;;;;;14.45;11.65;;;1.90;86.30;;;;;;5017123;28;20041;-72
2021/01/31 12:29:03;;;;;;;16.20;10.68;;;2.10;87.20;;;;;;5016207;28;20098;-71
2021/01/31 12:31:29;;;;;;;13.52;10.95;;;2.30;86.20;;;;;;5021050;28;20038;-72
2021/01/31 12:33:55;;;;;;;15.00;11.45;;;2.40;85.20;;;;;;5020012;28;20053;-72
2021/01/31 12:36:20;;;;;;;15.35;11.27;;;2.30;84.60;;;;;;5019663;28;20053;-71
2021/01/31 12:38:46;;;;;;;13.25;10.32;;;2.50;84.90;;;;;;5017957;28;20388;-71
2021/01/31 12:41:12;;;;;;;15.43;9.77;;;2.50;85.00;;;;;;5018434;28;20046;-72
2021/01/31 12:43:38;;;;;;;12.35;9.23;;;2.50;84.90;;;;;;5019076;28;20034;-72
2021/01/31 12:46:04;;;;;;;12.35;9.93;;;2.30;82.30;;;;;;5019837;28;20034;-72
2021/01/31 12:48:30;;;;;;;12.02;9.73;;;2.30;83.30;;;;;;5018599;28;20048;-72
2021/01/31 12:50:56;;;;;;;12.68;9.00;;;2.10;82.00;;;;;;5023983;28;20042;-72
2021/01/31 12:53:21;;;;;;;11.63;9.20;;;2.00;82.10;;;;;;5017429;28;20049;-72
2021/01/31 12:55:47;;;;;;;13.25;9.68;;;1.90;81.50;;;;;;5018761;28;20065;-72
2021/01/31 12:58:13;;;;;;;12.15;9.70;;;1.90;81.10;;;;;;5017756;28;20056;-73